createdAt,value
2022-09-03T00:00:25.110Z,2.0
2022-09-03T00:05:31.312Z,2.0
2022-09-03T00:10:37.519Z,2.0
2022-09-03T00:15:43.811Z,2.0
2022-09-03T00:20:49.944Z,1.0
2022-09-03T00:25:55.178Z,2.0
2022-09-03T00:31:01.483Z,2.0
2022-09-03T00:36:06.622Z,2.0
2022-09-03T00:41:12.824Z,2.0
2022-09-03T00:46:19.080Z,2.0
2022-09-03T00:51:25.245Z,2.0
2022-09-03T00:56:31.447Z,2.0
2022-09-03T01:01:37.801Z,2.0
2022-09-03T01:06:43.863Z,2.0
2022-09-03T01:11:50.081Z,2.0
2022-09-03T01:16:56.283Z,2.0
2022-09-03T01:22:02.493Z,2.0
2022-09-03T01:27:08.698Z,2.0
2022-09-03T01:32:14.902Z,2.0
2022-09-03T01:37:21.119Z,2.0
2022-09-03T01:42:27.325Z,2.0
2022-09-03T01:47:33.526Z,2.0
2022-09-03T01:52:39.735Z,2.0
2022-09-03T01:57:45.957Z,2.0
2022-09-03T02:02:52.296Z,2.0
2022-09-03T02:07:58.361Z,2.0
2022-09-03T02:13:04.567Z,2.0
2022-09-03T02:18:10.778Z,2.0
2022-09-03T02:23:16.021Z,2.0
2022-09-03T02:28:22.221Z,2.0
2022-09-03T02:33:28.429Z,2.0
2022-09-03T02:38:33.683Z,2.0
2022-09-03T02:43:39.874Z,2.0
2022-09-03T02:48:46.079Z,2.0
2022-09-03T02:53:52.291Z,2.0
2022-09-03T02:58:58.512Z,2.0
2022-09-03T03:04:04.718Z,2.0
2022-09-03T03:09:10.915Z,2.0
2022-09-03T03:14:17.124Z,2.0
2022-09-03T03:19:23.333Z,2.0
2022-09-03T03:24:29.539Z,2.0
2022-09-03T03:29:35.743Z,2.0
2022-09-03T03:34:41.957Z,2.0
2022-09-03T03:39:48.236Z,2.0
2022-09-03T03:44:54.375Z,2.0
2022-09-03T03:50:00.583Z,2.0
2022-09-03T03:55:06.794Z,2.0
2022-09-03T04:00:12.997Z,2.0
2022-09-03T04:05:19.212Z,2.0
2022-09-03T04:10:25.446Z,2.0
2022-09-03T04:15:31.616Z,2.0
2022-09-03T04:20:37.827Z,2.0
2022-09-03T04:25:43.066Z,2.0
2022-09-03T04:30:49.375Z,2.0
2022-09-03T04:35:54.507Z,2.0
2022-09-03T04:41:00.725Z,2.0
2022-09-03T04:46:06.965Z,2.0
2022-09-03T04:51:13.143Z,2.0
2022-09-03T04:56:19.359Z,2.0
2022-09-03T05:01:25.630Z,2.0
2022-09-03T05:06:31.786Z,2.0
2022-09-03T05:11:38.002Z,2.0
2022-09-03T05:16:44.252Z,2.0
2022-09-03T05:21:50.417Z,2.0
2022-09-03T05:26:56.624Z,2.0
2022-09-03T05:32:02.889Z,2.0
2022-09-03T05:37:09.050Z,2.0
2022-09-03T05:42:15.259Z,2.0
2022-09-03T05:47:21.467Z,2.0
2022-09-03T05:52:27.686Z,2.0
2022-09-03T05:57:33.893Z,2.0
2022-09-03T06:02:40.301Z,2.0
2022-09-03T06:07:46.315Z,2.0
2022-09-03T06:12:52.519Z,2.0
2022-09-03T06:17:58.740Z,2.0
2022-09-03T06:23:03.967Z,2.0
2022-09-03T06:28:10.179Z,2.0
2022-09-03T06:33:15.445Z,2.0
2022-09-03T06:38:21.656Z,2.0
2022-09-03T06:43:27.830Z,2.0
2022-09-03T06:48:34.042Z,1.0
2022-09-03T06:53:40.247Z,2.0
2022-09-03T06:58:46.448Z,2.0
2022-09-03T07:03:52.661Z,2.0
2022-09-03T07:08:58.868Z,1.0
2022-09-03T07:14:05.083Z,1.0
2022-09-03T07:19:11.284Z,1.0
2022-09-03T07:24:17.498Z,2.0
2022-09-03T07:29:23.710Z,2.0
2022-09-03T07:34:29.910Z,2.0
2022-09-03T07:39:36.172Z,1.0
2022-09-03T07:44:42.331Z,2.0
2022-09-03T07:49:48.690Z,1.0
2022-09-03T07:54:54.744Z,2.0
2022-09-03T08:00:00.956Z,1.0
2022-09-03T08:05:07.163Z,1.0
2022-09-03T08:10:13.379Z,1.0
2022-09-03T08:15:19.580Z,2.0
2022-09-03T08:20:24.817Z,1.0
2022-09-03T08:25:31.024Z,1.0
2022-09-03T08:30:36.290Z,1.0
2022-09-03T08:35:42.472Z,1.0
2022-09-03T08:40:48.688Z,1.0
2022-09-03T08:45:54.886Z,1.0
2022-09-03T08:51:01.100Z,1.0
2022-09-03T08:56:07.333Z,1.0
2022-09-03T09:01:13.517Z,1.0
2022-09-03T09:06:19.727Z,1.0
2022-09-03T09:11:25.938Z,1.0
2022-09-03T09:16:32.144Z,1.0
2022-09-03T09:21:38.351Z,1.0
2022-09-03T09:26:44.558Z,1.0
2022-09-03T09:31:50.773Z,1.0
2022-09-03T09:36:56.982Z,1.0
2022-09-03T09:42:03.186Z,1.0
2022-09-03T09:47:09.395Z,1.0
2022-09-03T09:52:15.616Z,1.0
2022-09-03T09:57:21.818Z,1.0
2022-09-03T10:02:28.094Z,1.0
2022-09-03T10:07:34.245Z,1.0
2022-09-03T10:12:40.483Z,1.0
2022-09-03T10:17:45.713Z,1.0
2022-09-03T10:22:57.435Z,1.0
2022-09-03T10:27:57.169Z,1.0
2022-09-03T10:33:03.383Z,1.0
2022-09-03T10:38:09.596Z,1.0
2022-09-03T10:43:15.819Z,1.0
2022-09-03T10:48:22.113Z,1.0
2022-09-03T10:53:28.473Z,1.0
2022-09-03T10:58:34.693Z,1.0
2022-09-03T11:03:40.911Z,1.0
2022-09-03T11:08:47.127Z,1.0
2022-09-03T11:13:53.370Z,1.0
2022-09-03T11:18:59.562Z,1.0
2022-09-03T11:24:05.781Z,1.0
2022-09-03T11:29:12.015Z,1.0
2022-09-03T11:34:23.323Z,1.0
2022-09-03T11:39:24.511Z,1.0
2022-09-03T11:44:30.662Z,1.0
2022-09-03T11:49:36.879Z,1.0
2022-09-03T11:54:43.106Z,1.0
2022-09-03T11:59:49.319Z,1.0
2022-09-03T12:04:55.834Z,1.0
2022-09-03T12:10:01.772Z,1.0
2022-09-03T12:15:07.022Z,1.0
2022-09-03T12:20:13.241Z,1.0
2022-09-03T12:25:19.472Z,1.0
2022-09-03T12:30:25.688Z,1.0
2022-09-03T12:41:24.198Z,1.0
2022-09-03T12:50:56.712Z,1.0
2022-09-03T12:55:56.797Z,1.0
2022-09-03T13:01:03.124Z,1.0
2022-09-03T13:06:09.242Z,1.0
2022-09-03T13:11:15.448Z,1.0
2022-09-03T13:16:21.694Z,1.0
2022-09-03T13:21:27.879Z,1.0
2022-09-03T13:26:34.097Z,1.0
2022-09-03T13:31:40.316Z,1.0
2022-09-03T13:36:46.529Z,1.0
2022-09-03T13:41:52.743Z,1.0
2022-09-03T13:46:58.961Z,1.0
2022-09-03T13:52:05.177Z,1.0
2022-09-03T13:57:11.387Z,1.0
2022-09-03T14:02:16.719Z,1.0
2022-09-03T14:07:22.850Z,1.0
2022-09-03T14:12:28.089Z,1.0
2022-09-03T14:17:34.296Z,1.0
2022-09-03T14:22:40.515Z,1.0
2022-09-03T14:27:46.728Z,1.0
2022-09-03T14:32:52.937Z,1.0
2022-09-03T14:37:59.151Z,1.0
2022-09-03T14:43:05.357Z,1.0
2022-09-03T14:48:11.572Z,1.0
2022-09-03T14:53:17.869Z,1.0
2022-09-03T14:58:23.995Z,1.0
2022-09-03T15:03:30.199Z,2.0
2022-09-03T15:08:36.415Z,1.0
2022-09-03T15:13:41.648Z,2.0
2022-09-03T15:18:47.854Z,1.0
2022-09-03T15:23:54.071Z,2.0
2022-09-03T15:34:06.493Z,2.0
2022-09-03T15:39:13.637Z,2.0
2022-09-03T15:44:19.839Z,2.0
2022-09-03T15:49:25.129Z,2.0
2022-09-03T15:54:31.331Z,2.0
2022-09-03T15:59:37.545Z,2.0
2022-09-03T16:04:42.778Z,2.0
2022-09-03T16:10:07.587Z,2.0
2022-09-03T16:14:54.236Z,2.0
2022-09-03T16:20:00.455Z,2.0
2022-09-03T16:25:05.680Z,2.0
2022-09-03T16:30:11.897Z,2.0
2022-09-03T16:35:18.104Z,2.0
2022-09-03T16:40:26.684Z,2.0
2022-09-03T16:45:30.587Z,2.0
2022-09-03T16:50:36.738Z,2.0
2022-09-03T16:55:42.941Z,2.0
2022-09-03T17:00:49.254Z,2.0
2022-09-03T17:05:55.379Z,2.0
2022-09-03T17:11:01.589Z,2.0
2022-09-03T17:16:07.856Z,2.0
2022-09-03T17:21:14.022Z,2.0
2022-09-03T17:26:20.241Z,2.0
2022-09-03T17:31:26.544Z,2.0
2022-09-03T17:36:32.675Z,2.0
2022-09-03T17:41:38.911Z,3.0
2022-09-03T17:46:45.205Z,3.0
2022-09-03T17:51:51.334Z,3.0
2022-09-03T17:56:57.552Z,4.0
2022-09-03T18:02:03.795Z,4.0
2022-09-03T18:07:09.986Z,3.0
2022-09-03T18:12:15.236Z,3.0
2022-09-03T18:17:21.449Z,4.0
2022-09-03T18:22:27.664Z,5.0
2022-09-03T18:27:33.891Z,4.0
2022-09-03T18:32:40.097Z,4.0
2022-09-03T18:37:46.308Z,4.0
2022-09-03T18:42:52.520Z,4.0
2022-09-03T18:48:02.917Z,4.0
2022-09-03T18:53:04.934Z,4.0
2022-09-03T18:58:11.145Z,4.0
2022-09-03T19:03:17.431Z,5.0
2022-09-03T19:08:23.561Z,4.0
2022-09-03T19:13:29.773Z,4.0
2022-09-03T19:18:36.010Z,5.0
2022-09-03T19:23:42.192Z,4.0
2022-09-03T19:28:48.402Z,5.0
2022-09-03T19:33:54.611Z,4.0
2022-09-03T19:39:00.837Z,4.0
2022-09-03T19:44:07.026Z,6.0
2022-09-03T19:49:13.247Z,6.0
2022-09-03T19:54:19.446Z,6.0
2022-09-03T19:59:24.680Z,7.0
2022-09-03T20:04:30.891Z,6.5
2022-09-03T20:09:36.124Z,7.0
2022-09-03T20:14:42.335Z,7.0
2022-09-03T20:19:48.546Z,8.0
2022-09-03T20:24:54.967Z,8.0
2022-09-03T20:30:00.962Z,7.0
2022-09-03T20:35:07.187Z,7.0
2022-09-03T20:40:13.383Z,8.0
2022-09-03T20:45:19.590Z,7.0
2022-09-03T20:50:25.800Z,9.0
2022-09-03T20:55:32.011Z,9.0
2022-09-03T21:00:38.213Z,9.0
2022-09-03T21:05:44.432Z,9.5
2022-09-03T21:10:50.637Z,8.0
2022-09-03T21:15:56.952Z,9.0
2022-09-03T21:21:03.050Z,11.0
2022-09-03T21:26:09.259Z,11.0
2022-09-03T21:31:15.522Z,11.0
2022-09-03T21:36:22.227Z,11.0
2022-09-03T21:41:27.883Z,12.0
2022-09-03T21:46:34.101Z,12.0
2022-09-03T21:51:40.308Z,12.0
2022-09-03T21:56:45.538Z,12.0
2022-09-03T22:06:57.954Z,11.0
2022-09-03T22:12:04.169Z,10.0
2022-09-03T22:17:09.399Z,10.0
2022-09-03T22:22:15.627Z,10.0
2022-09-03T22:27:20.855Z,10.0
2022-09-03T22:32:27.069Z,10.0
2022-09-03T22:37:33.270Z,10.0
2022-09-03T22:42:39.472Z,10.5
2022-09-03T22:47:45.679Z,11.0
2022-09-03T22:52:51.888Z,11.0
2022-09-03T22:57:58.098Z,12.0
2022-09-03T23:03:04.306Z,12.0
2022-09-03T23:08:10.513Z,11.0
2022-09-03T23:13:16.719Z,11.0
2022-09-03T23:18:23.046Z,11.0
2022-09-03T23:23:29.150Z,11.0
2022-09-03T23:28:35.341Z,10.0
2022-09-03T23:33:41.556Z,11.0
2022-09-03T23:38:47.766Z,10.0
2022-09-03T23:43:53.978Z,10.0
2022-09-03T23:49:00.184Z,11.0
2022-09-03T23:54:06.389Z,11.0
2022-09-03T23:59:12.592Z,9.0
